createdAt,value
2023-04-06T00:01:25.659Z,37.64
2023-04-06T00:03:55.554Z,37.55
2023-04-06T00:06:22.849Z,37.87
2023-04-06T00:08:49.601Z,38.46
2023-04-06T00:11:17.903Z,38.12
2023-04-06T00:13:45.931Z,38.62
2023-04-06T00:16:13.222Z,38.77
2023-04-06T00:18:40.345Z,38.54
2023-04-06T00:21:07.671Z,38.23
2023-04-06T00:23:34.591Z,38.53
2023-04-06T00:26:01.892Z,39.13
2023-04-06T00:28:30.928Z,38.79
2023-04-06T00:30:58.696Z,39.29
2023-04-06T00:33:25.739Z,38.52
2023-04-06T00:35:52.807Z,38.92
2023-04-06T00:38:20.082Z,39.74
2023-04-06T00:40:47.616Z,39.09
2023-04-06T00:43:14.982Z,39.10
2023-04-06T00:45:43.039Z,39.13
2023-04-06T00:48:10.313Z,39.50
2023-04-06T00:50:37.327Z,39.35
2023-04-06T00:53:04.385Z,39.04
2023-04-06T00:55:31.345Z,39.91
2023-04-06T00:58:02.445Z,39.77
2023-04-06T01:00:34.287Z,39.27
2023-04-06T01:03:02.439Z,39.88
2023-04-06T01:05:41.693Z,39.53
2023-04-06T01:08:16.600Z,39.81
2023-04-06T01:10:43.415Z,39.63
2023-04-06T01:13:19.046Z,39.88
2023-04-06T01:15:55.071Z,39.66
2023-04-06T01:18:30.890Z,40.11
2023-04-06T01:21:16.406Z,39.65
2023-04-06T01:23:56.504Z,39.99
2023-04-06T01:26:36.691Z,39.99
2023-04-06T01:29:07.265Z,39.77
2023-04-06T01:31:36.351Z,40.20
2023-04-06T01:34:04.251Z,40.82
2023-04-06T01:36:31.221Z,40.89
2023-04-06T01:39:08.127Z,40.89
2023-04-06T01:41:37.703Z,40.76
2023-04-06T01:44:05.617Z,41.29
2023-04-06T01:46:33.241Z,41.61
2023-04-06T01:49:03.605Z,41.27
2023-04-06T01:51:36.053Z,41.25
2023-04-06T01:54:06.484Z,41.38
2023-04-06T01:56:54.337Z,41.95
2023-04-06T01:59:43.715Z,42.28
2023-04-06T02:02:21.481Z,42.23
2023-04-06T02:04:58.282Z,42.10
2023-04-06T02:07:25.766Z,42.01
2023-04-06T02:09:59.267Z,42.96
2023-04-06T02:12:34.513Z,42.76
2023-04-06T02:15:01.688Z,43.26
2023-04-06T02:17:28.567Z,43.10
2023-04-06T02:19:55.481Z,43.01
2023-04-06T02:22:22.389Z,43.02
2023-04-06T02:24:49.069Z,43.31
2023-04-06T02:27:16.109Z,43.47
2023-04-06T02:29:47.242Z,43.28
2023-04-06T02:32:15.927Z,43.16
2023-04-06T02:34:42.799Z,43.89
2023-04-06T02:37:09.826Z,43.59
2023-04-06T02:39:36.915Z,43.24
2023-04-06T02:42:06.969Z,43.81
2023-04-06T02:44:33.954Z,43.28
2023-04-06T02:47:00.929Z,44.08
2023-04-06T02:49:27.747Z,43.93
2023-04-06T02:51:57.103Z,44.10
2023-04-06T02:54:30.796Z,43.68
2023-04-06T02:56:57.933Z,43.64
2023-04-06T02:59:32.888Z,43.78
2023-04-06T03:02:32.090Z,43.74
2023-04-06T03:05:07.407Z,43.79
2023-04-06T03:07:39.734Z,43.74
2023-04-06T03:10:11.133Z,43.64
2023-04-06T03:12:37.954Z,43.75
2023-04-06T03:15:11.646Z,43.36
2023-04-06T03:17:42.447Z,43.76
2023-04-06T03:20:15.566Z,44.26
2023-04-06T03:22:42.594Z,43.94
2023-04-06T03:25:13.779Z,43.81
2023-04-06T03:27:43.727Z,43.98
2023-04-06T03:30:14.631Z,44.14
2023-04-06T03:32:41.401Z,43.75
2023-04-06T03:35:10.752Z,43.81
2023-04-06T03:37:37.790Z,43.99
2023-04-06T03:40:06.573Z,43.83
2023-04-06T03:42:33.592Z,44.41
2023-04-06T03:45:09.329Z,43.74
2023-04-06T03:47:39.521Z,43.94
2023-04-06T03:50:08.694Z,44.04
2023-04-06T03:52:37.187Z,43.96
2023-04-06T03:55:04.398Z,44.49
2023-04-06T03:57:31.334Z,44.08
2023-04-06T03:59:58.453Z,43.95
2023-04-06T04:02:26.946Z,44.04
2023-04-06T04:04:54.285Z,44.29
2023-04-06T04:07:21.107Z,44.51
2023-04-06T04:09:48.102Z,44.44
2023-04-06T04:12:16.433Z,44.48
2023-04-06T04:14:43.860Z,43.89
2023-04-06T04:17:10.738Z,43.58
2023-04-06T04:19:37.504Z,43.39
2023-04-06T04:22:07.619Z,43.77
2023-04-06T04:24:38.515Z,43.32
2023-04-06T04:27:06.201Z,43.09
2023-04-06T04:29:34.052Z,43.20
2023-04-06T04:32:05.126Z,42.87
2023-04-06T04:34:32.624Z,42.41
2023-04-06T04:36:59.584Z,42.48
2023-04-06T04:39:38.431Z,42.60
2023-04-06T04:42:07.284Z,43.13
2023-04-06T04:44:35.979Z,43.16
2023-04-06T04:47:04.164Z,43.34
2023-04-06T04:49:40.646Z,43.27
2023-04-06T04:52:07.392Z,43.18
2023-04-06T04:54:48.187Z,42.76
2023-04-06T04:57:22.986Z,43.40
2023-04-06T04:59:51.275Z,42.89
2023-04-06T05:02:19.965Z,43.50
2023-04-06T05:04:58.361Z,43.30
2023-04-06T05:07:27.232Z,42.79
2023-04-06T05:09:56.666Z,43.22
2023-04-06T05:12:28.224Z,42.80
2023-04-06T05:15:21.143Z,42.96
2023-04-06T05:17:51.842Z,43.43
2023-04-06T05:20:23.087Z,43.26
2023-04-06T05:22:51.819Z,43.00
2023-04-06T05:25:19.565Z,43.49
2023-04-06T05:27:50.161Z,42.84
2023-04-06T05:30:31.809Z,42.84
2023-04-06T05:32:59.931Z,42.99
2023-04-06T05:35:32.542Z,43.22
2023-04-06T05:38:09.448Z,42.90
2023-04-06T05:40:39.368Z,42.40
2023-04-06T05:43:09.230Z,42.46
2023-04-06T05:45:39.075Z,42.48
2023-04-06T05:48:07.248Z,42.63
2023-04-06T05:50:33.994Z,42.69
2023-04-06T05:53:01.514Z,42.41
2023-04-06T05:55:34.549Z,42.33
2023-04-06T05:58:12.321Z,42.34
2023-04-06T06:00:39.443Z,43.08
2023-04-06T06:03:09.653Z,42.96
2023-04-06T06:05:37.675Z,42.59
2023-04-06T06:08:09.823Z,42.72
2023-04-06T06:10:36.727Z,42.42
2023-04-06T06:13:03.579Z,42.55
2023-04-06T06:15:30.508Z,42.78
2023-04-06T06:17:57.449Z,42.55
2023-04-06T06:20:27.275Z,41.90
2023-04-06T06:22:57.574Z,42.07
2023-04-06T06:25:25.467Z,41.80
2023-04-06T06:27:55.183Z,41.94
2023-04-06T06:30:23.660Z,41.95
2023-04-06T06:32:52.162Z,41.69
2023-04-06T06:35:20.018Z,40.98
2023-04-06T06:37:48.069Z,38.19
2023-04-06T06:40:20.414Z,36.44
2023-04-06T06:42:49.698Z,34.55
2023-04-06T06:45:23.787Z,33.44
2023-04-06T06:47:52.860Z,32.70
2023-04-06T06:50:21.374Z,32.61
2023-04-06T06:52:48.262Z,32.38
2023-04-06T06:55:15.194Z,32.24
2023-04-06T06:57:43.657Z,31.69
2023-04-06T07:00:13.541Z,32.08
2023-04-06T07:02:41.616Z,31.44
2023-04-06T07:05:23.632Z,32.53
2023-04-06T07:07:55.643Z,33.64
2023-04-06T07:10:23.261Z,34.26
2023-04-06T07:12:51.334Z,34.86
2023-04-06T07:15:18.574Z,35.52
2023-04-06T07:17:48.374Z,35.87
2023-04-06T07:20:15.351Z,36.27
2023-04-06T07:22:44.542Z,36.48
2023-04-06T07:25:11.418Z,36.71
2023-04-06T07:27:38.290Z,36.42
2023-04-06T07:30:06.848Z,36.43
2023-04-06T07:32:35.719Z,36.66
2023-04-06T07:35:03.705Z,36.52
2023-04-06T07:37:30.539Z,37.31
2023-04-06T07:39:57.275Z,36.98
2023-04-06T07:42:24.100Z,36.49
2023-04-06T07:44:50.993Z,36.45
2023-04-06T07:47:17.856Z,36.62
2023-04-06T07:49:44.587Z,36.61
2023-04-06T07:52:11.465Z,36.03
2023-04-06T07:54:43.222Z,36.70
2023-04-06T07:57:10.336Z,35.89
2023-04-06T07:59:40.316Z,36.11
2023-04-06T08:02:07.575Z,35.84
2023-04-06T08:04:37.353Z,36.22
2023-04-06T08:07:05.149Z,36.49
2023-04-06T08:09:32.430Z,36.67
2023-04-06T08:11:59.840Z,36.36
2023-04-06T08:14:27.074Z,36.27
2023-04-06T08:16:53.997Z,36.64
2023-04-06T08:19:20.948Z,35.90
2023-04-06T08:21:48.393Z,35.98
2023-04-06T08:24:16.529Z,35.55
2023-04-06T08:26:45.027Z,35.71
2023-04-06T08:29:12.574Z,35.71
2023-04-06T08:31:39.434Z,35.72
2023-04-06T08:34:10.935Z,34.89
2023-04-06T08:36:40.059Z,35.06
2023-04-06T08:39:07.014Z,34.94
2023-04-06T08:41:33.932Z,35.37
2023-04-06T08:44:02.379Z,34.61
2023-04-06T08:46:33.819Z,35.34
2023-04-06T08:49:10.767Z,35.02
2023-04-06T08:51:39.363Z,35.00
2023-04-06T08:54:06.294Z,34.52
2023-04-06T08:56:33.231Z,34.06
2023-04-06T08:59:01.643Z,34.08
2023-04-06T09:01:30.167Z,33.11
2023-04-06T09:04:01.323Z,31.02
2023-04-06T09:06:29.451Z,24.98
2023-04-06T09:08:59.069Z,21.18
2023-04-06T09:11:30.188Z,18.12
2023-04-06T09:14:01.454Z,15.93
2023-04-06T09:16:28.628Z,14.80
2023-04-06T09:18:57.090Z,13.87
2023-04-06T09:21:25.970Z,12.90
2023-04-06T09:24:09.960Z,12.63
2023-04-06T09:26:49.118Z,11.43
2023-04-06T09:29:28.096Z,11.26
2023-04-06T09:32:07.252Z,11.22
2023-04-06T09:34:37.205Z,10.62
2023-04-06T09:37:23.904Z,10.92
2023-04-06T09:39:53.199Z,9.98
2023-04-06T09:42:31.883Z,9.81
2023-04-06T09:45:06.248Z,8.36
2023-04-06T09:47:34.573Z,8.27
2023-04-06T09:50:03.297Z,8.26
2023-04-06T09:52:39.376Z,7.98
2023-04-06T09:55:09.531Z,7.92
2023-04-06T09:57:39.377Z,7.74
2023-04-06T10:00:13.019Z,8.47
2023-04-06T10:03:11.036Z,6.92
2023-04-06T10:06:04.580Z,6.93
2023-04-06T10:08:42.288Z,6.33
2023-04-06T10:11:13.645Z,5.79
2023-04-06T10:13:40.569Z,5.62
2023-04-06T10:16:10.374Z,5.27
2023-04-06T10:18:42.385Z,6.00
2023-04-06T10:21:13.155Z,5.45
2023-04-06T10:23:46.175Z,5.96
2023-04-06T10:26:18.257Z,5.14
2023-04-06T10:28:50.585Z,5.01
2023-04-06T10:31:29.588Z,5.32
2023-04-06T10:33:59.072Z,6.17
2023-04-06T10:36:35.764Z,5.14
2023-04-06T10:39:10.620Z,5.11
2023-04-06T10:41:49.562Z,4.95
2023-04-06T10:44:24.737Z,5.72
2023-04-06T10:46:57.634Z,5.16
2023-04-06T10:49:27.571Z,5.22
2023-04-06T10:51:56.126Z,5.63
2023-04-06T10:54:26.676Z,5.29
2023-04-06T10:56:53.907Z,4.54
2023-04-06T10:59:23.921Z,4.83
2023-04-06T11:01:50.903Z,4.31
2023-04-06T11:04:19.522Z,4.54
2023-04-06T11:06:49.702Z,5.40
2023-04-06T11:09:27.361Z,5.80
2023-04-06T11:11:57.999Z,6.37
2023-04-06T11:17:14.613Z,6.36
2023-04-06T11:19:42.659Z,6.99
2023-04-06T11:22:10.950Z,7.32
2023-04-06T11:24:38.255Z,7.75
2023-04-06T11:27:06.756Z,7.82
2023-04-06T11:29:37.804Z,9.16
2023-04-06T11:32:09.957Z,8.66
2023-04-06T11:34:39.629Z,8.54
2023-04-06T11:37:14.461Z,7.20
2023-04-06T11:39:48.547Z,6.59
2023-04-06T11:42:23.937Z,6.38
2023-04-06T11:45:01.598Z,6.48
2023-04-06T11:47:39.157Z,6.62
2023-04-06T11:50:15.926Z,7.40
2023-04-06T11:52:45.039Z,7.90
2023-04-06T11:55:18.324Z,8.90
2023-04-06T11:57:46.295Z,8.67
2023-04-06T12:00:14.055Z,8.01
2023-04-06T12:02:50.771Z,8.08
2023-04-06T12:05:18.002Z,8.07
2023-04-06T12:07:45.213Z,7.76
2023-04-06T12:10:12.420Z,7.44
2023-04-06T12:12:40.517Z,7.82
2023-04-06T12:15:08.723Z,8.16
2023-04-06T12:17:35.793Z,9.16
2023-04-06T12:20:09.325Z,9.93
2023-04-06T12:22:44.874Z,10.98
2023-04-06T12:25:12.096Z,11.83
2023-04-06T12:27:38.981Z,12.36
2023-04-06T12:30:07.717Z,12.91
2023-04-06T12:32:35.323Z,13.40
2023-04-06T12:35:02.164Z,13.39
2023-04-06T12:37:29.188Z,13.34
2023-04-06T12:39:56.658Z,13.19
2023-04-06T12:42:29.254Z,13.68
2023-04-06T12:44:56.430Z,13.62
2023-04-06T12:47:23.820Z,14.43
2023-04-06T12:49:51.271Z,14.60
2023-04-06T12:52:19.146Z,14.72
2023-04-06T12:54:48.629Z,14.93
2023-04-06T12:57:16.598Z,15.37
2023-04-06T12:59:47.485Z,15.77
2023-04-06T13:02:14.581Z,15.83
2023-04-06T13:04:44.733Z,15.92
2023-04-06T13:07:11.652Z,16.08
2023-04-06T13:09:41.190Z,16.41
2023-04-06T13:12:09.643Z,15.94
2023-04-06T13:14:38.920Z,15.98
2023-04-06T13:17:06.106Z,16.17
2023-04-06T13:19:34.851Z,16.46
2023-04-06T13:22:04.345Z,16.37
2023-04-06T13:24:31.370Z,16.74
2023-04-06T13:26:59.085Z,16.70
2023-04-06T13:29:27.261Z,16.49
2023-04-06T13:31:54.400Z,16.55
2023-04-06T13:34:21.682Z,16.54
2023-04-06T13:36:52.678Z,16.75
2023-04-06T13:39:19.738Z,16.01
2023-04-06T13:41:46.772Z,16.57
2023-04-06T13:44:15.614Z,16.26
2023-04-06T13:46:42.480Z,16.65
2023-04-06T13:49:09.441Z,16.74
2023-04-06T13:51:36.433Z,16.81
2023-04-06T13:54:03.771Z,16.62
2023-04-06T13:56:30.596Z,16.35
2023-04-06T13:58:57.580Z,16.41
2023-04-06T14:01:28.176Z,16.24
2023-04-06T14:03:55.643Z,16.02
2023-04-06T14:06:31.304Z,16.24
2023-04-06T14:08:59.782Z,16.62
2023-04-06T14:11:28.040Z,15.96
2023-04-06T14:13:57.795Z,16.20
2023-04-06T14:16:26.581Z,16.18
2023-04-06T14:18:53.982Z,16.04
2023-04-06T14:21:21.071Z,15.69
2023-04-06T14:23:49.549Z,15.57
2023-04-06T14:26:20.661Z,15.68
2023-04-06T14:28:48.125Z,16.06
2023-04-06T14:31:17.434Z,15.73
2023-04-06T14:33:47.139Z,15.99
2023-04-06T14:36:14.726Z,15.99
2023-04-06T14:38:42.071Z,15.84
2023-04-06T14:41:12.592Z,16.15
2023-04-06T14:43:39.363Z,15.98
2023-04-06T14:46:06.964Z,16.05
2023-04-06T14:48:34.162Z,16.08
2023-04-06T14:51:01.519Z,15.83
2023-04-06T14:53:29.133Z,15.89
2023-04-06T14:56:01.187Z,15.99
2023-04-06T14:58:28.282Z,16.27
2023-04-06T15:01:01.532Z,16.01
2023-04-06T15:03:31.799Z,16.72
2023-04-06T15:06:04.161Z,16.40
2023-04-06T15:08:32.012Z,16.35
2023-04-06T15:11:00.864Z,16.54
2023-04-06T15:13:35.285Z,17.08
2023-04-06T15:16:02.367Z,17.29
2023-04-06T15:18:29.561Z,16.50
2023-04-06T15:20:56.314Z,16.56
2023-04-06T15:23:23.279Z,17.14
2023-04-06T15:25:50.792Z,17.13
2023-04-06T15:28:23.727Z,16.79
2023-04-06T15:30:50.685Z,16.81
2023-04-06T15:33:18.467Z,17.50
2023-04-06T15:35:47.041Z,17.53
2023-04-06T15:38:13.982Z,17.77
2023-04-06T15:40:46.299Z,17.34
2023-04-06T15:43:14.930Z,17.67
2023-04-06T15:45:42.162Z,18.11
2023-04-06T15:48:09.349Z,18.34
2023-04-06T15:50:36.630Z,18.41
2023-04-06T15:53:03.926Z,18.52
2023-04-06T15:55:31.608Z,18.90
2023-04-06T15:57:59.037Z,19.15
2023-04-06T16:00:26.613Z,19.59
2023-04-06T16:02:57.099Z,18.63
2023-04-06T16:05:24.402Z,19.70
2023-04-06T16:07:51.247Z,19.33
2023-04-06T16:10:19.527Z,19.88
2023-04-06T16:12:46.357Z,19.50
2023-04-06T16:15:13.988Z,20.47
2023-04-06T16:17:44.074Z,20.02
2023-04-06T16:20:12.021Z,20.43
2023-04-06T16:22:38.833Z,20.13
2023-04-06T16:25:06.589Z,20.22
2023-04-06T16:27:33.653Z,20.33
2023-04-06T16:30:05.849Z,20.57
2023-04-06T16:32:36.943Z,20.99
2023-04-06T16:35:12.264Z,20.84
2023-04-06T16:37:40.020Z,21.11
2023-04-06T16:40:14.834Z,21.33
2023-04-06T16:42:46.344Z,21.67
2023-04-06T16:45:13.422Z,22.38
2023-04-06T16:47:41.012Z,23.09
2023-04-06T16:50:09.742Z,22.85
2023-04-06T16:52:40.558Z,23.41
2023-04-06T16:55:08.517Z,23.84
2023-04-06T16:57:39.412Z,23.95
2023-04-06T17:00:07.808Z,23.80
2023-04-06T17:02:37.300Z,24.09
2023-04-06T17:05:05.070Z,24.71
2023-04-06T17:07:39.274Z,25.33
2023-04-06T17:10:14.013Z,25.13
2023-04-06T17:12:41.656Z,25.06
2023-04-06T17:15:10.890Z,25.08
2023-04-06T17:17:43.590Z,25.17
2023-04-06T17:20:14.110Z,25.80
2023-04-06T17:22:42.288Z,26.09
2023-04-06T17:25:18.218Z,25.77
2023-04-06T17:27:45.509Z,26.02
2023-04-06T17:30:18.373Z,26.20
2023-04-06T17:32:50.302Z,25.86
2023-04-06T17:35:20.932Z,26.02
2023-04-06T17:37:49.643Z,26.68
2023-04-06T17:40:17.101Z,26.68
2023-04-06T17:42:44.173Z,26.90
2023-04-06T17:45:12.640Z,26.99
2023-04-06T17:47:40.146Z,27.08
2023-04-06T17:50:08.935Z,27.46
2023-04-06T17:55:11.586Z,28.34
2023-04-06T17:57:41.129Z,28.13
2023-04-06T18:00:29.386Z,28.96
2023-04-06T18:02:58.078Z,29.43
2023-04-06T18:05:29.120Z,29.77
2023-04-06T18:07:58.741Z,30.41
2023-04-06T18:10:27.648Z,30.37
2023-04-06T18:12:54.844Z,30.26
2023-04-06T18:15:27.831Z,30.16
2023-04-06T18:17:57.878Z,30.64
2023-04-06T18:20:27.966Z,31.40
2023-04-06T18:22:56.007Z,32.53
2023-04-06T18:25:25.661Z,32.97
2023-04-06T18:27:52.872Z,33.41
2023-04-06T18:30:20.155Z,33.99
2023-04-06T18:32:49.000Z,35.08
2023-04-06T18:35:16.451Z,35.50
2023-04-06T18:37:43.325Z,35.89
2023-04-06T18:40:31.357Z,36.26
2023-04-06T18:42:58.095Z,36.70
2023-04-06T18:45:26.313Z,38.36
2023-04-06T18:47:54.408Z,38.78
2023-04-06T18:50:21.250Z,39.34
2023-04-06T18:52:48.174Z,40.11
2023-04-06T18:55:17.325Z,41.60
2023-04-06T18:57:47.598Z,41.58
2023-04-06T19:00:19.854Z,41.98
2023-04-06T19:03:05.028Z,42.01
2023-04-06T19:05:32.724Z,41.82
2023-04-06T19:08:01.813Z,42.53
2023-04-06T19:10:29.748Z,42.86
2023-04-06T19:13:00.603Z,43.16
2023-04-06T19:15:33.295Z,43.23
2023-04-06T19:18:00.887Z,44.16
2023-04-06T19:20:28.889Z,44.35
2023-04-06T19:22:57.320Z,44.59
2023-04-06T19:25:24.519Z,44.87
2023-04-06T19:27:52.970Z,45.68
2023-04-06T19:30:20.550Z,46.42
2023-04-06T19:32:47.652Z,46.97
2023-04-06T19:35:14.816Z,47.48
2023-04-06T19:37:53.155Z,47.55
2023-04-06T19:40:32.983Z,47.29
2023-04-06T19:43:22.075Z,47.56
2023-04-06T19:46:12.274Z,47.89
2023-04-06T19:48:43.896Z,47.40
2023-04-06T19:51:13.606Z,47.68
2023-04-06T19:53:44.325Z,47.91
2023-04-06T19:56:12.098Z,48.43
2023-04-06T19:58:40.888Z,48.05
2023-04-06T20:01:08.468Z,48.73
2023-04-06T20:03:42.556Z,49.68
2023-04-06T20:06:11.004Z,50.19
2023-04-06T20:08:43.490Z,49.87
2023-04-06T20:11:11.093Z,50.21
2023-04-06T20:13:41.880Z,50.68
2023-04-06T20:16:09.959Z,50.63
2023-04-06T20:18:38.038Z,50.94
2023-04-06T20:21:07.608Z,50.79
2023-04-06T20:23:42.377Z,50.96
2023-04-06T20:26:12.777Z,50.71
2023-04-06T20:28:53.262Z,51.34
2023-04-06T20:31:35.615Z,51.02
2023-04-06T20:34:05.148Z,51.64
2023-04-06T20:36:36.576Z,51.85
2023-04-06T20:39:04.311Z,51.37
2023-04-06T20:41:32.676Z,51.33
2023-04-06T20:44:02.806Z,52.42
2023-04-06T20:46:30.254Z,52.52
2023-04-06T20:48:57.326Z,52.93
2023-04-06T20:51:24.495Z,53.84
2023-04-06T20:53:52.964Z,54.55
2023-04-06T20:56:22.236Z,55.30
2023-04-06T20:58:49.863Z,55.59
2023-04-06T21:01:19.081Z,55.69
2023-04-06T21:03:46.227Z,55.18
2023-04-06T21:06:13.122Z,56.02
2023-04-06T21:08:40.094Z,55.91
2023-04-06T21:11:07.131Z,55.87
2023-04-06T21:13:34.892Z,55.70
2023-04-06T21:16:06.091Z,55.83
2023-04-06T21:18:33.173Z,56.50
2023-04-06T21:21:00.437Z,56.94
2023-04-06T21:23:28.198Z,56.16
2023-04-06T21:25:57.328Z,56.93
2023-04-06T21:28:29.254Z,57.34
2023-04-06T21:30:59.842Z,56.60
2023-04-06T21:33:29.416Z,57.47
2023-04-06T21:36:00.047Z,56.67
2023-04-06T21:38:28.208Z,56.40
2023-04-06T21:40:57.386Z,56.77
2023-04-06T21:43:24.902Z,57.16
2023-04-06T21:45:53.022Z,57.52
2023-04-06T21:48:20.090Z,57.71
2023-04-06T21:50:51.629Z,58.54
2023-04-06T21:53:21.729Z,58.41
2023-04-06T21:55:49.780Z,58.58
2023-04-06T21:58:16.609Z,59.32
2023-04-06T22:00:43.500Z,59.20
2023-04-06T22:03:10.821Z,59.79
2023-04-06T22:05:40.486Z,60.23
2023-04-06T22:08:15.060Z,60.58
2023-04-06T22:10:45.007Z,60.91
2023-04-06T22:13:13.035Z,61.02
2023-04-06T22:15:44.938Z,61.19
2023-04-06T22:18:11.896Z,60.78
2023-04-06T22:20:39.338Z,60.41
2023-04-06T22:23:06.684Z,61.00
2023-04-06T22:25:33.610Z,61.15
2023-04-06T22:28:00.423Z,61.68
2023-04-06T22:30:27.121Z,62.30
2023-04-06T22:32:54.196Z,62.40
2023-04-06T22:35:27.663Z,63.07
2023-04-06T22:38:00.711Z,62.85
2023-04-06T22:40:28.258Z,62.92
2023-04-06T22:42:55.262Z,62.56
2023-04-06T22:45:23.461Z,62.31
2023-04-06T22:47:50.640Z,61.81
2023-04-06T22:50:20.029Z,61.04
2023-04-06T22:52:47.181Z,60.36
2023-04-06T22:55:14.060Z,60.80
2023-04-06T22:57:40.878Z,60.48
2023-04-06T23:00:08.770Z,60.95
2023-04-06T23:02:35.642Z,61.13
2023-04-06T23:05:02.498Z,61.00
2023-04-06T23:07:31.822Z,60.89
2023-04-06T23:09:59.214Z,60.91
2023-04-06T23:12:26.640Z,61.16
2023-04-06T23:17:56.500Z,60.96
2023-04-06T23:20:25.578Z,60.64
2023-04-06T23:22:59.273Z,60.22
2023-04-06T23:25:37.163Z,60.73
2023-04-06T23:28:04.230Z,60.21
2023-04-06T23:30:38.749Z,60.28
2023-04-06T23:33:08.691Z,60.44
2023-04-06T23:35:46.642Z,60.44
2023-04-06T23:38:16.826Z,60.41
2023-04-06T23:40:43.874Z,59.80
2023-04-06T23:43:10.635Z,60.17
2023-04-06T23:45:58.435Z,60.76
2023-04-06T23:48:35.931Z,60.19
2023-04-06T23:51:09.303Z,59.91
2023-04-06T23:53:43.912Z,60.11
2023-04-06T23:56:12.822Z,60.44
2023-04-06T23:58:39.911Z,60.02
